createdAt,value
2024-04-26T00:01:04.315Z,8.40
2024-04-26T00:05:09.466Z,8.42
2024-04-26T00:09:16.880Z,8.40
2024-04-26T00:13:21.714Z,8.41
2024-04-26T00:17:27.287Z,8.42
2024-04-26T00:21:32.199Z,8.43
2024-04-26T00:25:39.766Z,8.40
2024-04-26T00:29:44.642Z,8.36
2024-04-26T00:33:49.674Z,8.38
2024-04-26T00:37:54.695Z,8.36
2024-04-26T00:42:02.856Z,8.35
2024-04-26T00:46:10.503Z,8.35
2024-04-26T00:50:15.699Z,8.32
2024-04-26T00:54:22.018Z,8.29
2024-04-26T00:58:29.844Z,8.32
2024-04-26T01:02:35.463Z,8.27
2024-04-26T01:06:40.477Z,8.31
2024-04-26T01:10:45.691Z,8.25
2024-04-26T01:14:53.423Z,8.22
2024-04-26T01:18:58.556Z,8.22
2024-04-26T01:23:03.655Z,8.23
2024-04-26T01:27:11.134Z,8.23
2024-04-26T01:31:15.969Z,8.25
2024-04-26T01:35:20.770Z,8.24
2024-04-26T01:39:27.947Z,8.28
2024-04-26T01:43:35.493Z,8.22
2024-04-26T01:47:40.398Z,8.23
2024-04-26T01:51:45.294Z,8.18
2024-04-26T01:55:50.078Z,8.18
2024-04-26T01:59:57.543Z,8.14
2024-04-26T02:04:02.616Z,8.20
2024-04-26T02:08:07.921Z,8.19
2024-04-26T02:12:12.852Z,8.16
2024-04-26T02:16:20.324Z,8.19
2024-04-26T02:20:25.250Z,8.16
2024-04-26T02:24:31.052Z,8.15
2024-04-26T02:28:36.498Z,8.09
2024-04-26T02:32:44.976Z,8.06
2024-04-26T02:36:49.849Z,8.13
2024-04-26T02:40:54.771Z,8.18
2024-04-26T02:44:59.940Z,8.17
2024-04-26T02:49:07.503Z,8.21
2024-04-26T02:53:12.306Z,8.23
2024-04-26T02:57:17.613Z,8.27
2024-04-26T03:01:23.076Z,8.27
2024-04-26T03:05:31.178Z,8.27
2024-04-26T03:09:36.008Z,8.29
2024-04-26T03:13:43.787Z,8.21
2024-04-26T03:17:48.805Z,8.21
2024-04-26T03:21:56.301Z,8.18
2024-04-26T03:26:01.223Z,8.24
2024-04-26T03:30:08.424Z,8.19
2024-04-26T03:34:13.517Z,8.21
2024-04-26T03:38:21.298Z,8.18
2024-04-26T03:42:26.368Z,8.19
2024-04-26T03:46:31.218Z,8.24
2024-04-26T03:50:36.219Z,8.24
2024-04-26T03:54:43.871Z,8.19
2024-04-26T03:58:48.818Z,8.27
2024-04-26T04:02:56.062Z,8.22
2024-04-26T04:07:00.983Z,8.21
2024-04-26T04:11:08.520Z,8.20
2024-04-26T04:15:13.511Z,8.22
2024-04-26T04:19:18.528Z,8.26
2024-04-26T04:23:23.533Z,8.24
2024-04-26T04:27:31.100Z,8.24
2024-04-26T04:31:35.968Z,8.19
2024-04-26T04:35:40.855Z,8.16
2024-04-26T04:39:47.797Z,8.16
2024-04-26T04:43:55.551Z,8.18
2024-04-26T04:48:00.700Z,8.17
2024-04-26T04:52:06.131Z,8.13
2024-04-26T04:56:11.092Z,8.18
2024-04-26T05:00:18.998Z,8.22
2024-04-26T05:04:24.055Z,8.21
2024-04-26T05:08:28.985Z,8.25
2024-04-26T05:12:44.654Z,8.27
2024-04-26T05:16:52.338Z,8.29
2024-04-26T05:20:58.982Z,8.33
2024-04-26T05:25:03.924Z,8.35
2024-04-26T05:29:08.853Z,8.40
2024-04-26T05:33:16.589Z,8.48
2024-04-26T05:37:21.587Z,8.49
2024-04-26T05:41:26.473Z,8.53
2024-04-26T05:45:31.370Z,8.52
2024-04-26T05:49:39.325Z,8.60
2024-04-26T05:53:45.392Z,8.60
2024-04-26T05:57:50.347Z,8.64
2024-04-26T06:01:55.180Z,8.62
2024-04-26T06:06:03.376Z,8.72
2024-04-26T06:10:08.495Z,8.83
2024-04-26T06:14:13.291Z,8.84
2024-04-26T06:18:18.287Z,8.94
2024-04-26T06:22:25.846Z,9.09
2024-04-26T06:26:32.319Z,9.12
2024-04-26T06:30:37.189Z,9.17
2024-04-26T06:34:42.035Z,9.16
2024-04-26T06:38:49.406Z,9.21
2024-04-26T06:42:54.250Z,9.43
2024-04-26T06:46:59.195Z,9.58
2024-04-26T06:51:04.166Z,9.71
2024-04-26T06:55:11.698Z,9.83
2024-04-26T06:59:18.048Z,9.69
2024-04-26T07:03:23.000Z,9.84
2024-04-26T07:07:27.922Z,9.86
2024-04-26T07:11:35.674Z,9.64
2024-04-26T07:15:40.676Z,9.72
2024-04-26T07:19:47.441Z,9.85
2024-04-26T07:23:52.524Z,9.86
2024-04-26T07:28:00.121Z,10.06
2024-04-26T07:32:05.156Z,9.97
2024-04-26T07:36:10.510Z,9.94
2024-04-26T07:40:15.666Z,10.07
2024-04-26T07:44:23.117Z,9.93
2024-04-26T07:48:28.102Z,9.80
2024-04-26T07:52:33.054Z,9.54
2024-04-26T07:56:38.357Z,9.37
2024-04-26T08:00:46.335Z,9.43
2024-04-26T08:04:51.532Z,9.63
2024-04-26T08:08:56.372Z,9.90
2024-04-26T08:13:01.388Z,10.03
2024-04-26T08:17:09.152Z,9.96
2024-04-26T08:21:15.988Z,9.87
2024-04-26T08:25:27.196Z,9.90
2024-04-26T08:29:34.766Z,9.84
2024-04-26T08:33:42.765Z,9.70
2024-04-26T08:37:47.919Z,9.79
2024-04-26T08:41:55.340Z,9.83
2024-04-26T08:46:01.216Z,9.82
2024-04-26T08:50:09.522Z,10.05
2024-04-26T08:54:14.478Z,9.93
2024-04-26T08:58:20.826Z,10.03
2024-04-26T09:02:25.998Z,10.13
2024-04-26T09:06:35.489Z,9.76
2024-04-26T09:10:40.361Z,9.75
2024-04-26T09:14:45.274Z,9.68
2024-04-26T09:18:50.318Z,9.75
2024-04-26T09:22:58.043Z,9.75
2024-04-26T09:27:04.757Z,10.08
2024-04-26T09:31:09.662Z,10.07
2024-04-26T09:35:14.816Z,9.69
2024-04-26T09:39:23.727Z,9.86
2024-04-26T09:43:29.785Z,10.13
2024-04-26T09:47:35.460Z,9.96
2024-04-26T09:51:45.223Z,10.12
2024-04-26T09:55:56.955Z,10.23
2024-04-26T10:00:02.125Z,10.49
2024-04-26T10:04:11.244Z,10.44
2024-04-26T10:08:16.215Z,10.40
2024-04-26T10:12:30.846Z,10.00
2024-04-26T10:16:38.728Z,9.89
2024-04-26T10:20:49.836Z,9.93
2024-04-26T10:24:54.876Z,10.06
2024-04-26T10:29:02.366Z,9.97
2024-04-26T10:33:07.692Z,10.04
2024-04-26T10:37:17.240Z,10.42
2024-04-26T10:41:22.564Z,10.59
2024-04-26T10:45:30.082Z,11.04
2024-04-26T10:49:35.094Z,11.10
2024-04-26T10:53:42.357Z,10.54
2024-04-26T10:57:57.147Z,11.39
2024-04-26T11:02:05.111Z,11.46
2024-04-26T11:06:10.053Z,11.51
2024-04-26T11:10:17.233Z,11.48
2024-04-26T11:14:24.001Z,11.75
2024-04-26T11:18:31.713Z,11.08
2024-04-26T11:22:36.611Z,11.11
2024-04-26T11:26:41.613Z,11.05
2024-04-26T11:30:46.586Z,11.97
2024-04-26T11:34:54.268Z,11.83
2024-04-26T11:38:59.265Z,12.16
2024-04-26T11:43:04.172Z,12.19
2024-04-26T11:47:09.115Z,11.82
2024-04-26T11:51:18.485Z,11.70
2024-04-26T11:55:23.504Z,12.13
2024-04-26T11:59:28.480Z,12.53
2024-04-26T12:03:33.456Z,12.95
2024-04-26T12:07:44.586Z,13.08
2024-04-26T12:11:49.732Z,13.31
2024-04-26T12:15:54.629Z,12.75
2024-04-26T12:19:59.459Z,13.29
2024-04-26T12:24:07.130Z,13.40
2024-04-26T12:28:11.966Z,13.04
2024-04-26T12:32:16.837Z,13.63
2024-04-26T12:36:21.706Z,13.30
2024-04-26T12:40:30.468Z,13.29
2024-04-26T12:44:35.911Z,13.11
2024-04-26T12:48:40.929Z,13.21
2024-04-26T12:52:47.401Z,13.10
2024-04-26T12:56:54.900Z,13.06
2024-04-26T13:00:59.804Z,12.86
2024-04-26T13:05:05.098Z,13.67
2024-04-26T13:09:12.983Z,13.66
2024-04-26T13:13:20.498Z,14.56
2024-04-26T13:17:25.489Z,14.31
2024-04-26T13:21:30.429Z,14.60
2024-04-26T13:25:35.329Z,14.26
2024-04-26T13:29:42.803Z,14.27
2024-04-26T13:33:47.731Z,14.45
2024-04-26T13:37:52.958Z,14.20
2024-04-26T13:41:57.959Z,14.44
2024-04-26T13:46:05.753Z,14.18
2024-04-26T13:50:12.007Z,13.94
2024-04-26T13:54:19.377Z,13.92
2024-04-26T13:58:24.337Z,14.20
2024-04-26T14:02:31.740Z,13.75
2024-04-26T14:06:36.574Z,13.91
2024-04-26T14:10:41.528Z,14.94
2024-04-26T14:14:46.408Z,13.54
2024-04-26T14:18:55.264Z,14.46
2024-04-26T14:23:00.210Z,14.70
2024-04-26T14:27:05.209Z,14.43
2024-04-26T14:31:12.377Z,15.42
2024-04-26T14:35:20.232Z,14.74
2024-04-26T14:39:25.078Z,14.03
2024-04-26T14:43:29.890Z,14.23
2024-04-26T14:47:34.714Z,13.73
2024-04-26T14:51:42.264Z,13.69
2024-04-26T14:55:47.176Z,13.63
2024-04-26T14:59:52.835Z,13.92
2024-04-26T15:03:57.622Z,13.65
2024-04-26T15:08:05.355Z,13.86
2024-04-26T15:12:10.224Z,14.19
2024-04-26T15:16:15.193Z,14.32
2024-04-26T15:20:21.031Z,14.22
2024-04-26T15:24:29.081Z,14.74
2024-04-26T15:28:33.996Z,14.49
2024-04-26T15:32:39.509Z,14.67
2024-04-26T15:36:45.093Z,14.11
2024-04-26T15:40:52.720Z,13.87
2024-04-26T15:44:57.880Z,14.80
2024-04-26T15:49:02.775Z,15.08
2024-04-26T15:53:07.656Z,14.57
2024-04-26T15:57:15.204Z,14.43
2024-04-26T16:01:20.377Z,14.33
2024-04-26T16:05:26.374Z,13.63
2024-04-26T16:09:31.295Z,13.47
2024-04-26T16:13:39.099Z,13.30
2024-04-26T16:17:44.285Z,13.45
2024-04-26T16:21:49.230Z,13.37
2024-04-26T16:25:54.201Z,13.19
2024-04-26T16:30:05.342Z,13.51
2024-04-26T16:34:13.464Z,12.99
2024-04-26T16:38:18.318Z,13.37
2024-04-26T16:42:23.103Z,13.28
2024-04-26T16:46:31.625Z,13.21
2024-04-26T16:50:36.539Z,13.03
2024-04-26T16:54:41.346Z,12.81
2024-04-26T16:58:46.179Z,12.81
2024-04-26T17:02:53.861Z,12.72
2024-04-26T17:06:58.890Z,12.57
2024-04-26T17:11:05.047Z,12.51
2024-04-26T17:15:10.153Z,12.53
2024-04-26T17:19:17.797Z,12.51
2024-04-26T17:23:22.667Z,12.57
2024-04-26T17:27:27.527Z,12.45
2024-04-26T17:31:37.126Z,12.47
2024-04-26T17:35:44.794Z,12.44
2024-04-26T17:39:58.770Z,12.40
2024-04-26T17:44:03.937Z,12.23
2024-04-26T17:48:09.362Z,12.22
2024-04-26T17:52:16.881Z,12.07
2024-04-26T17:56:25.058Z,12.07
2024-04-26T18:00:30.615Z,12.05
2024-04-26T18:04:35.747Z,11.94
2024-04-26T18:08:44.551Z,11.79
2024-04-26T18:12:50.885Z,11.69
2024-04-26T18:16:55.844Z,11.76
2024-04-26T18:21:00.791Z,11.64
2024-04-26T18:25:08.694Z,11.58
2024-04-26T18:29:14.227Z,11.57
2024-04-26T18:33:19.210Z,11.47
2024-04-26T18:37:24.166Z,11.39
2024-04-26T18:41:31.650Z,11.33
2024-04-26T18:45:36.470Z,11.27
2024-04-26T18:49:41.351Z,11.20
2024-04-26T18:53:46.409Z,11.13
2024-04-26T18:57:53.820Z,11.06
2024-04-26T19:01:59.009Z,11.01
2024-04-26T19:06:04.056Z,10.98
2024-04-26T19:10:09.247Z,10.93
2024-04-26T19:14:17.956Z,10.86
2024-04-26T19:18:23.015Z,10.85
2024-04-26T19:22:28.029Z,10.76
2024-04-26T19:26:32.851Z,10.70
2024-04-26T19:30:50.458Z,10.66
2024-04-26T19:34:55.401Z,10.63
2024-04-26T19:39:00.264Z,10.62
2024-04-26T19:43:05.070Z,10.57
2024-04-26T19:47:12.588Z,10.53
2024-04-26T19:51:17.586Z,10.48
2024-04-26T19:55:38.338Z,10.44
2024-04-26T19:59:48.131Z,10.41
2024-04-26T20:03:55.689Z,10.37
2024-04-26T20:08:03.428Z,10.35
2024-04-26T20:12:08.480Z,10.32
2024-04-26T20:16:17.526Z,10.31
2024-04-26T20:20:25.002Z,10.28
2024-04-26T20:24:29.894Z,10.18
2024-04-26T20:28:34.819Z,10.15
2024-04-26T20:32:39.695Z,10.05
2024-04-26T20:36:48.980Z,10.11
2024-04-26T20:40:55.825Z,10.09
2024-04-26T20:45:00.737Z,10.11
2024-04-26T20:49:05.581Z,10.07
2024-04-26T20:53:13.042Z,10.02
2024-04-26T20:57:18.056Z,10.00
2024-04-26T21:01:26.720Z,10.04
2024-04-26T21:05:32.275Z,10.08
2024-04-26T21:09:39.856Z,10.08
2024-04-26T21:13:45.637Z,10.12
2024-04-26T21:17:53.380Z,10.14
2024-04-26T21:21:58.258Z,10.17
2024-04-26T21:26:05.825Z,10.15
2024-04-26T21:30:11.370Z,10.14
2024-04-26T21:34:16.178Z,10.14
2024-04-26T21:38:23.392Z,10.17
2024-04-26T21:42:31.473Z,10.15
2024-04-26T21:46:37.996Z,10.17
2024-04-26T21:50:42.896Z,10.24
2024-04-26T21:54:47.718Z,10.24
2024-04-26T21:59:02.473Z,10.09
2024-04-26T22:03:12.451Z,9.84
2024-04-26T22:07:17.505Z,9.81
2024-04-26T22:11:22.446Z,9.72
2024-04-26T22:15:30.022Z,9.72
2024-04-26T22:19:34.896Z,9.63
2024-04-26T22:23:39.781Z,9.51
2024-04-26T22:27:44.592Z,9.39
2024-04-26T22:31:52.183Z,9.38
2024-04-26T22:35:57.035Z,9.22
2024-04-26T22:40:01.962Z,9.16
2024-04-26T22:44:06.947Z,8.95
2024-04-26T22:48:17.780Z,8.85
2024-04-26T22:52:22.743Z,8.82
2024-04-26T22:56:27.591Z,8.49
2024-04-26T23:00:32.427Z,8.41
2024-04-26T23:04:40.028Z,8.43
2024-04-26T23:08:44.931Z,8.25
2024-04-26T23:12:49.790Z,8.17
2024-04-26T23:16:54.647Z,8.02
2024-04-26T23:21:02.098Z,8.08
2024-04-26T23:25:07.496Z,7.89
2024-04-26T23:29:12.456Z,7.68
2024-04-26T23:33:17.372Z,7.47
2024-04-26T23:37:25.047Z,7.29
2024-04-26T23:41:30.148Z,7.11
2024-04-26T23:45:35.167Z,6.91
2024-04-26T23:49:40.039Z,6.84
2024-04-26T23:53:47.990Z,6.73
2024-04-26T23:57:52.840Z,6.58
